Time;durP1;ratioP1;P1;durP2;ratioP2;P2;SDS_P1;SDS_P2;PMS_P1;PMS_P2;Temp;Humidity;BMP_temperature;BMP_pressure;BME280_temperature;BME280_humidity;BME280_pressure;Samples;Min_cycle;Max_cycle;Signal;HPM_P1;HPM_P2
2023/10/10 00:02:19;;;;;;;1.13;0.90;;;;;;;;;;5112611;28;20051;-65
2023/10/10 00:04:54;;;;;;;1.85;1.20;;;;;;;;;;5113535;28;20052;-65
2023/10/10 00:07:24;;;;;;;1.33;0.90;;;;;;;;;;5112234;28;20039;-65
2023/10/10 00:09:50;;;;;;;1.45;0.93;;;;;;;;;;5112998;28;20044;-66
2023/10/10 00:12:26;;;;;;;1.27;0.85;;;;;;;;;;5113756;28;20114;-65
2023/10/10 00:14:58;;;;;;;0.85;0.65;;;;;;;;;;5113407;28;20088;-65
2023/10/10 00:17:29;;;;;;;0.88;0.88;;;;;;;;;;5113801;28;20039;-66
2023/10/10 00:20:15;;;;;;;0.73;0.70;;;;;;;;;;5112260;28;20048;-65
2023/10/10 00:22:43;;;;;;;1.77;0.95;;;;;;;;;;5095125;28;20042;-65
2023/10/10 00:25:12;;;;;;;0.82;0.82;;;;;;;;;;5112306;28;20487;-65
2023/10/10 00:27:43;;;;;;;1.35;1.08;;;;;;;;;;5113650;28;20065;-67
2023/10/10 00:30:13;;;;;;;1.05;0.90;;;;;;;;;;5113278;28;20047;-67
2023/10/10 00:32:42;;;;;;;1.85;0.98;;;;;;;;;;5094972;28;20122;-67
2023/10/10 00:35:11;;;;;;;1.10;0.80;;;;;;;;;;5112204;28;20169;-67
2023/10/10 00:37:37;;;;;;;1.63;1.17;;;;;;;;;;5095088;28;20404;-65
2023/10/10 00:40:25;;;;;;;0.88;0.88;;;;;;;;;;5112085;28;20122;-66
2023/10/10 00:42:50;;;;;;;0.80;0.80;;;;;;;;;;5113052;28;20055;-65
2023/10/10 00:45:16;;;;;;;1.10;1.00;;;;;;;;;;5113055;28;20402;-65
2023/10/10 00:47:44;;;;;;;1.20;1.10;;;;;;;;;;5113385;28;20040;-66
2023/10/10 00:50:20;;;;;;;1.33;1.13;;;;;;;;;;5113330;28;20044;-65
2023/10/10 00:52:48;;;;;;;1.60;1.20;;;;;;;;;;5113007;28;20050;-65
2023/10/10 00:55:14;;;;;;;2.38;1.10;;;;;;;;;;5113302;28;20040;-65
2023/10/10 00:57:42;;;;;;;2.53;1.30;;;;;;;;;;5094733;28;20071;-65
2023/10/10 01:00:10;;;;;;;1.52;1.20;;;;;;;;;;5113153;28;20047;-65
2023/10/10 01:02:39;;;;;;;1.27;1.17;;;;;;;;;;5113257;28;20046;-65
2023/10/10 01:05:12;;;;;;;1.60;0.98;;;;;;;;;;5094595;28;20066;-65
2023/10/10 01:07:38;;;;;;;1.55;1.05;;;;;;;;;;5112898;28;20048;-67
2023/10/10 01:10:11;;;;;;;1.15;1.00;;;;;;;;;;5094902;28;20039;-67
2023/10/10 01:12:39;;;;;;;1.27;0.80;;;;;;;;;;5113168;28;20075;-67
2023/10/10 01:15:14;;;;;;;1.00;0.95;;;;;;;;;;5112737;28;20083;-67
2023/10/10 01:17:40;;;;;;;1.58;1.02;;;;;;;;;;5113109;28;20046;-67
2023/10/10 01:20:24;;;;;;;1.20;1.02;;;;;;;;;;5112271;28;20064;-67
2023/10/10 01:22:54;;;;;;;1.17;1.00;;;;;;;;;;5116875;28;20048;-67
2023/10/10 01:28:03;;;;;;;1.20;0.98;;;;;;;;;;5116437;28;20044;-67
2023/10/10 01:33:14;;;;;;;1.52;1.10;;;;;;;;;;5116691;28;20040;-67
2023/10/10 01:35:42;;;;;;;1.00;0.90;;;;;;;;;;5115521;28;20035;-67
2023/10/10 01:38:15;;;;;;;1.00;0.80;;;;;;;;;;5116585;28;20051;-67
2023/10/10 01:40:41;;;;;;;1.45;1.00;;;;;;;;;;5097997;28;20040;-67
2023/10/10 01:43:10;;;;;;;1.10;1.00;;;;;;;;;;5097992;28;20092;-67
2023/10/10 01:45:41;;;;;;;2.88;1.25;;;;;;;;;;5116488;28;20051;-67
2023/10/10 01:48:11;;;;;;;1.60;0.90;;;;;;;;;;5116402;28;20043;-67
2023/10/10 01:50:37;;;;;;;1.70;1.27;;;;;;;;;;5114831;28;20043;-67
2023/10/10 01:53:06;;;;;;;1.55;0.80;;;;;;;;;;5116306;28;20151;-67
2023/10/10 01:55:32;;;;;;;1.27;1.10;;;;;;;;;;5114706;28;20040;-67
2023/10/10 01:58:00;;;;;;;1.23;0.95;;;;;;;;;;5097655;28;20036;-67
2023/10/10 02:00:27;;;;;;;1.10;1.00;;;;;;;;;;5116177;28;20047;-67
2023/10/10 02:02:55;;;;;;;0.80;0.80;;;;;;;;;;5114884;28;20403;-67
2023/10/10 02:07:57;;;;;;;1.33;1.23;;;;;;;;;;5116038;28;20090;-65
2023/10/10 02:10:26;;;;;;;2.33;1.30;;;;;;;;;;5116012;28;20032;-65
2023/10/10 02:12:52;;;;;;;1.70;1.27;;;;;;;;;;5115634;28;20119;-65
2023/10/10 02:15:19;;;;;;;1.33;0.85;;;;;;;;;;5097334;28;20035;-66
2023/10/10 02:17:54;;;;;;;1.10;0.93;;;;;;;;;;5115978;28;20050;-67
2023/10/10 02:22:47;;;;;;;0.80;0.80;;;;;;;;;;5115797;28;20055;-67
2023/10/10 02:27:56;;;;;;;1.73;1.20;;;;;;;;;;5115617;28;20051;-67
2023/10/10 02:30:46;;;;;;;1.48;0.90;;;;;;;;;;5115392;28;20035;-67
2023/10/10 02:38:22;;;;;;;1.05;0.95;;;;;;;;;;5097267;28;20126;-67
2023/10/10 02:40:52;;;;;;;0.95;0.82;;;;;;;;;;5114242;28;20126;-67
2023/10/10 02:43:33;;;;;;;1.60;0.98;;;;;;;;;;5113880;28;20411;-67
2023/10/10 02:45:59;;;;;;;1.67;1.10;;;;;;;;;;5113776;28;20058;-67
2023/10/10 02:48:27;;;;;;;0.77;0.77;;;;;;;;;;5115286;28;20410;-67
2023/10/10 02:50:53;;;;;;;1.13;1.02;;;;;;;;;;5114897;28;20062;-67
2023/10/10 02:53:22;;;;;;;1.58;1.08;;;;;;;;;;5114790;28;20042;-67
2023/10/10 02:55:51;;;;;;;2.28;0.90;;;;;;;;;;5096560;28;20044;-67
2023/10/10 02:58:21;;;;;;;1.00;0.90;;;;;;;;;;5114724;28;20046;-67
2023/10/10 03:00:57;;;;;;;1.45;0.98;;;;;;;;;;5113852;28;20047;-67
2023/10/10 03:03:24;;;;;;;1.20;1.08;;;;;;;;;;5114995;28;20087;-67
2023/10/10 03:05:50;;;;;;;1.17;1.00;;;;;;;;;;5114507;28;20051;-67
2023/10/10 03:08:18;;;;;;;0.70;0.70;;;;;;;;;;5114826;28;20092;-67
2023/10/10 03:10:54;;;;;;;1.10;1.00;;;;;;;;;;5113339;28;20108;-67
2023/10/10 03:13:37;;;;;;;1.38;0.82;;;;;;;;;;5114533;28;20040;-67
2023/10/10 03:19:13;;;;;;;1.25;0.85;;;;;;;;;;5114702;28;20086;-67
2023/10/10 03:29:50;;;;;;;1.23;0.85;;;;;;;;;;5082137;28;20044;-67
2023/10/10 03:32:26;;;;;;;1.30;0.80;;;;;;;;;;5114478;28;20039;-67
2023/10/10 03:35:03;;;;;;;1.13;0.63;;;;;;;;;;5114283;28;20043;-67
2023/10/10 03:37:39;;;;;;;0.98;0.82;;;;;;;;;;5114316;28;20043;-67
2023/10/10 03:40:26;;;;;;;1.77;1.02;;;;;;;;;;5112687;28;20119;-66
2023/10/10 05:24:55;;;;;;;2.08;1.50;;;;;;;;;;5116880;28;20083;-67
2023/10/10 05:27:29;;;;;;;2.38;2.15;;;;;;;;;;5116792;28;20044;-67
2023/10/10 05:29:56;;;;;;;2.20;2.00;;;;;;;;;;5116558;28;20031;-67
2023/10/10 05:32:22;;;;;;;2.78;2.20;;;;;;;;;;5098230;28;20052;-67
2023/10/10 05:34:52;;;;;;;1.98;1.77;;;;;;;;;;5116719;28;20043;-68
2023/10/10 05:37:18;;;;;;;2.45;2.15;;;;;;;;;;5115254;28;20036;-67
2023/10/10 05:39:46;;;;;;;2.63;2.20;;;;;;;;;;5115069;28;20043;-67
2023/10/10 05:42:20;;;;;;;2.88;2.35;;;;;;;;;;5116292;28;20440;-67
2023/10/10 05:44:49;;;;;;;3.22;2.78;;;;;;;;;;5116252;28;20118;-66
2023/10/10 05:47:16;;;;;;;2.60;2.40;;;;;;;;;;5116603;28;20403;-67
2023/10/10 05:49:42;;;;;;;2.60;2.40;;;;;;;;;;5097903;28;20078;-66
2023/10/10 05:52:08;;;;;;;2.83;2.53;;;;;;;;;;5097864;28;20494;-69
2023/10/10 05:54:35;;;;;;;3.05;2.60;;;;;;;;;;5098097;28;20511;-71
2023/10/10 05:57:02;;;;;;;3.35;2.80;;;;;;;;;;5114699;28;20415;-69
2023/10/10 05:59:28;;;;;;;3.00;2.70;;;;;;;;;;5116284;28;20398;-70
2023/10/10 06:01:55;;;;;;;3.53;2.65;;;;;;;;;;5114727;28;20862;-70
2023/10/10 06:04:21;;;;;;;3.42;2.78;;;;;;;;;;5115759;28;20141;-67
2023/10/10 06:06:47;;;;;;;2.88;2.60;;;;;;;;;;5115051;28;20055;-72
2023/10/10 06:09:18;;;;;;;4.00;2.53;;;;;;;;;;5097785;28;20043;-66
2023/10/10 06:11:47;;;;;;;2.55;2.05;;;;;;;;;;5097539;28;20052;-72
2023/10/10 06:14:13;;;;;;;2.95;2.63;;;;;;;;;;5115715;28;20039;-71
2023/10/10 06:16:40;;;;;;;3.40;2.75;;;;;;;;;;5097378;28;20074;-71
2023/10/10 06:19:06;;;;;;;3.22;2.58;;;;;;;;;;5097479;28;20056;-68
2023/10/10 06:21:32;;;;;;;3.00;2.70;;;;;;;;;;5115538;28;20047;-65
2023/10/10 06:23:58;;;;;;;3.63;2.95;;;;;;;;;;5097506;28;20143;-65
2023/10/10 06:26:24;;;;;;;2.95;2.63;;;;;;;;;;5097402;28;20075;-67
2023/10/10 06:28:53;;;;;;;3.03;2.65;;;;;;;;;;5115942;28;20074;-73
2023/10/10 06:31:19;;;;;;;3.33;3.03;;;;;;;;;;5114155;28;20388;-67
2023/10/10 06:33:49;;;;;;;3.63;2.65;;;;;;;;;;5097074;28;20420;-67
2023/10/10 06:41:38;;;;;;;2.90;2.60;;;;;;;;;;5115105;28;20047;-67
2023/10/10 06:44:05;;;;;;;2.80;2.60;;;;;;;;;;5115463;28;20093;-67
2023/10/10 06:46:37;;;;;;;2.80;2.53;;;;;;;;;;5115301;28;20039;-67
2023/10/10 06:49:06;;;;;;;3.50;2.58;;;;;;;;;;5113757;28;20100;-67
2023/10/10 06:51:41;;;;;;;2.88;2.20;;;;;;;;;;5096994;28;20047;-67
2023/10/10 06:54:19;;;;;;;2.92;2.58;;;;;;;;;;5114873;28;20448;-67
2023/10/10 06:56:55;;;;;;;3.00;2.63;;;;;;;;;;5114014;28;20039;-67
2023/10/10 06:59:27;;;;;;;2.50;2.30;;;;;;;;;;5114784;28;20089;-66
2023/10/10 07:01:53;;;;;;;3.00;2.70;;;;;;;;;;5114926;28;20046;-66
2023/10/10 07:04:19;;;;;;;3.45;3.10;;;;;;;;;;5096586;28;20050;-66
2023/10/10 07:06:47;;;;;;;3.20;2.90;;;;;;;;;;5114819;28;20035;-66
2023/10/10 07:09:28;;;;;;;3.20;2.90;;;;;;;;;;5114927;28;20075;-66
2023/10/10 07:12:09;;;;;;;3.03;2.72;;;;;;;;;;5113630;28;20048;-66
2023/10/10 07:14:40;;;;;;;;;;;;;;;;;;5096656;28;20043;-66
2023/10/10 07:17:11;;;;;;;2.70;2.50;;;;;;;;;;5114540;28;19927;-66
2023/10/10 07:19:54;;;;;;;3.38;2.85;;;;;;;;;;5114616;28;20534;-66
2023/10/10 07:22:21;;;;;;;5.72;2.90;;;;;;;;;;5113132;28;20047;-66
2023/10/10 07:24:48;;;;;;;3.25;2.97;;;;;;;;;;5114542;28;20065;-66
2023/10/10 07:27:18;;;;;;;3.17;2.88;;;;;;;;;;5114493;28;20043;-66
2023/10/10 07:32:16;;;;;;;3.40;3.13;;;;;;;;;;5096131;28;20050;-66
2023/10/10 07:34:49;;;;;;;3.80;3.42;;;;;;;;;;5114158;28;20039;-66
2023/10/10 07:37:15;;;;;;;3.50;3.20;;;;;;;;;;5114023;28;20073;-66
2023/10/10 07:39:55;;;;;;;3.75;3.45;;;15.90;99.90;;;;;;5096067;28;20086;-66
2023/10/10 07:42:27;;;;;;;3.70;3.40;;;16.20;99.90;;;;;;5113051;28;20403;-66
2023/10/10 07:45:02;;;;;;;4.40;4.00;;;16.50;99.90;;;;;;5114130;28;20065;-66
2023/10/10 07:47:32;;;;;;;3.75;3.45;;;16.40;99.90;;;;;;5114138;28;20039;-66
2023/10/10 07:49:59;;;;;;;4.60;4.20;;;15.90;99.90;;;;;;5114065;28;20035;-67
2023/10/10 07:52:25;;;;;;;4.25;3.88;;;15.90;99.90;;;;;;5114055;28;20109;-67
2023/10/10 07:54:53;;;;;;;5.00;4.50;;;16.70;99.90;;;;;;5114069;28;20035;-66
2023/10/10 07:57:22;;;;;;;5.00;4.60;;;16.10;99.90;;;;;;5095883;28;20040;-67
2023/10/10 08:00:00;;;;;;;4.78;4.38;;;15.90;99.90;;;;;;5113939;28;20119;-66
2023/10/10 08:02:31;;;;;;;5.30;4.80;;;16.40;99.90;;;;;;5095459;28;20039;-66
2023/10/10 08:05:01;;;;;;;5.40;5.00;;;16.50;99.90;;;;;;5095416;28;20507;-67
2023/10/10 08:07:27;;;;;;;5.53;5.03;;;16.40;99.90;;;;;;5113851;28;20040;-67
2023/10/10 08:12:38;;;;;;;5.63;5.20;;;16.40;99.90;;;;;;5113486;28;20122;-67
2023/10/10 08:15:19;;;;;;;4.82;4.43;;;17.00;99.90;;;;;;5095486;28;20032;-67
2023/10/10 08:17:52;;;;;;;5.75;5.15;;;;;;;;;;5113712;28;20490;-67
2023/10/10 08:21:07;;;;;;;4.97;4.57;;;16.40;99.90;;;;;;5113363;28;20082;-66
2023/10/10 08:23:24;;;;;;;5.43;5.03;;;17.00;99.90;;;;;;5113074;28;20044;-66
2023/10/10 08:25:51;;;;;;;6.00;5.40;;;16.60;99.90;;;;;;5113415;28;20035;-67
2023/10/10 08:28:17;;;;;;;6.13;5.55;;;;;;;;;;5094861;28;20413;-66
2023/10/10 08:30:43;;;;;;;7.25;6.57;;;;;;;;;;5112556;28;20118;-66
2023/10/10 08:33:09;;;;;;;7.72;6.03;;;;;;;;;;5095048;28;20078;-66
2023/10/10 08:35:38;;;;;;;6.38;5.82;;;;;;;;;;5095019;28;20475;-66
2023/10/10 08:38:05;;;;;;;6.65;6.13;;;;;;;;;;5113499;28;20043;-66
2023/10/10 08:40:35;;;;;;;6.75;6.22;;;;;;;;;;5111854;28;20047;-67
2023/10/10 08:43:07;;;;;;;7.15;6.55;;;;;;;;;;5113215;28;20532;-66
2023/10/10 08:45:39;;;;;;;6.72;5.50;;;;;;;;;;5113131;28;20043;-66
2023/10/10 08:48:12;;;;;;;5.90;5.30;;;;;;;;;;5113296;28;20044;-66
2023/10/10 08:50:42;;;;;;;7.07;6.40;;;;;;;;;;5113117;28;20039;-66
2023/10/10 08:53:11;;;;;;;6.03;5.53;;;;;;;;;;5113584;28;20040;-66
2023/10/10 08:55:38;;;;;;;6.18;5.70;;;;;;;;;;5112032;28;20047;-66
2023/10/10 08:58:07;;;;;;;6.80;6.30;;;;;;;;;;5113315;28;20499;-66
2023/10/10 09:00:33;;;;;;;6.40;5.85;;;;;;;;;;5094853;28;20044;-66
2023/10/10 09:02:59;;;;;;;6.80;6.00;;;;;;;;;;5094991;28;20047;-67
2023/10/10 09:05:28;;;;;;;7.20;6.60;;;;;;;;;;5112787;28;20052;-66
2023/10/10 09:07:55;;;;;;;6.32;5.72;;;;;;;;;;5113065;28;20050;-67
2023/10/10 09:10:37;;;;;;;6.50;5.95;;;;;;;;;;5112891;28;20071;-66
2023/10/10 09:13:04;;;;;;;5.97;5.38;;;;;;;;;;5113265;28;20043;-66
2023/10/10 09:15:33;;;;;;;6.90;6.30;;;;;;;;;;5111988;28;20096;-66
2023/10/10 09:18:16;;;;;;;6.93;6.43;;;;;;;;;;5113214;28;20461;-65
2023/10/10 09:20:45;;;;;;;7.22;6.63;;;;;;;;;;5113108;28;20043;-65
2023/10/10 09:23:22;;;;;;;6.63;6.13;;;;;;;;;;5111636;28;20092;-65
2023/10/10 09:25:57;;;;;;;7.15;6.55;;;;;;;;;;5113053;28;20054;-65
2023/10/10 09:28:30;;;;;;;6.45;5.75;;;;;;;;;;5111432;28;20415;-65
2023/10/10 09:31:02;;;;;;;7.57;6.97;;;;;;;;;;5111466;28;20051;-65
2023/10/10 09:33:30;;;;;;;8.05;7.43;;;;;;;;;;5112597;28;20120;-65
2023/10/10 09:36:09;;;;;;;7.00;6.40;;;;;;;;;;5111425;28;20047;-65
2023/10/10 09:38:43;;;;;;;7.22;6.63;;;;;;;;;;5111827;28;20062;-66
2023/10/10 09:41:14;;;;;;;8.25;7.50;;;;;;;;;;5094576;28;20039;-66
2023/10/10 09:43:49;;;;;;;7.57;7.00;;;;;;;;;;5115981;28;20054;-66
2023/10/10 09:46:25;;;;;;;7.53;6.93;;;;;;;;;;5114972;28;20437;-66
2023/10/10 09:54:17;;;;;;;7.88;7.18;;;;;;;;;;5116396;28;20032;-66
2023/10/10 09:56:47;;;;;;;7.32;6.72;;;;;;;;;;5097752;28;20123;-67
2023/10/10 09:59:16;;;;;;;7.65;7.05;;;;;;;;;;5116283;28;20483;-66
2023/10/10 10:01:46;;;;;;;6.78;6.28;;;;;;;;;;5097778;28;20047;-67
2023/10/10 10:04:18;;;;;;;7.10;6.50;;;;;;;;;;5116095;28;20096;-67
2023/10/10 10:06:53;;;;;;;7.18;6.65;;;;;;;;;;5114558;28;20047;-67
2023/10/10 10:09:32;;;;;;;7.90;7.30;;;;;;;;;;5114601;28;20403;-67
2023/10/10 10:12:19;;;;;;;7.63;6.93;;;;;;;;;;5116028;28;20483;-67
2023/10/10 10:14:55;;;;;;;6.82;6.32;;;;;;;;;;5115669;28;20101;-67
2023/10/10 10:17:53;;;;;;;7.10;6.50;;;;;;;;;;5097728;28;20050;-67
2023/10/10 10:20:43;;;;;;;7.10;6.50;;;;;;;;;;5114358;28;20043;-67
2023/10/10 10:23:16;;;;;;;7.30;6.65;;;;;;;;;;5115832;28;20439;-67
2023/10/10 10:25:46;;;;;;;7.38;6.78;;;;;;;;;;5115457;28;20072;-67
2023/10/10 10:28:20;;;;;;;7.07;6.47;;;;;;;;;;5115752;28;20044;-66
2023/10/10 10:30:55;;;;;;;7.35;6.65;;;;;;;;;;5097367;28;20042;-66
2023/10/10 10:33:22;;;;;;;6.75;6.15;;;;;;;;;;5115693;28;20039;-66
2023/10/10 10:35:56;;;;;;;7.78;7.05;;;;;;;;;;5097028;28;20092;-66
2023/10/10 10:38:23;;;;;;;10.60;6.88;;;;;;;;;;5115529;28;20043;-66
2023/10/10 10:40:50;;;;;;;7.10;6.50;;;;;;;;;;5113908;28;20461;-66
2023/10/10 10:43:31;;;;;;;7.05;6.45;;;;;;;;;;5115436;28;20092;-66
2023/10/10 10:46:12;;;;;;;7.38;6.78;;;;;;;;;;5115384;28;20043;-66
2023/10/10 10:48:39;;;;;;;6.82;6.22;;;;;;;;;;5115339;28;20050;-66
2023/10/10 10:51:26;;;;;;;6.60;5.63;;;;;;;;;;5113753;28;20123;-66
2023/10/10 10:53:58;;;;;;;6.32;5.75;;;;;;;;;;5114731;28;20035;-66
2023/10/10 10:59:13;;;;;;;6.07;5.33;;;;;;;;;;5114758;28;20035;-66
2023/10/10 11:01:43;;;;;;;6.18;5.68;;;;;;;;;;5096741;28;20123;-66
2023/10/10 11:04:14;;;;;;;5.75;5.25;;;;;;;;;;5096226;28;20054;-66
2023/10/10 11:07:07;;;;;;;5.63;5.03;;;;;;;;;;5114789;28;20051;-66
2023/10/10 11:09:36;;;;;;;6.20;5.53;;;;;;;;;;5114895;28;20369;-66
2023/10/10 11:12:03;;;;;;;5.30;4.80;;;;;;;;;;5113566;28;20097;-66
2023/10/10 11:14:30;;;;;;;5.80;4.93;;;;;;;;;;5096324;28;20437;-66
2023/10/10 11:16:56;;;;;;;5.50;5.00;;;;;;;;;;5114668;28;20055;-66
2023/10/10 11:22:02;;;;;;;5.57;5.10;;;;;;;;;;5114266;28;20058;-66
2023/10/10 11:24:32;;;;;;;4.82;4.43;;;;;;;;;;5114621;28;20093;-66
2023/10/10 11:27:13;;;;;;;5.10;4.70;;;;;;;;;;5114403;28;20047;-67
2023/10/10 11:30:00;;;;;;;4.78;4.38;;;;;;;;;;5096247;28;20610;-66
2023/10/10 11:32:36;;;;;;;4.70;4.30;;;;;;;;;;5113137;28;20475;-66
2023/10/10 11:35:17;;;;;;;4.95;4.53;;;;;;;;;;5114371;28;20075;-66
2023/10/10 11:37:58;;;;;;;4.85;4.45;;;;;;;;;;5114318;28;20043;-66
2023/10/10 11:42:57;;;;;;;4.10;3.70;;;;;;;;;;5113942;28;20441;-67
2023/10/10 11:45:26;;;;;;;4.63;4.22;;;;;;;;;;5114228;28;20442;-67
2023/10/10 11:47:53;;;;;;;4.60;4.10;;;;;;;;;;5095576;28;20039;-68
2023/10/10 11:50:29;;;;;;;4.13;3.80;;;;;;;;;;5113792;28;20032;-68
2023/10/10 11:53:00;;;;;;;4.72;4.22;;;;;;;;;;5113972;28;20036;-69
2023/10/10 11:55:29;;;;;;;4.50;4.10;;;;;;;;;;5113986;28;20082;-67
2023/10/10 11:58:06;;;;;;;4.10;3.70;;;;;;;;;;5095691;28;20139;-68
2023/10/10 12:00:42;;;;;;;4.95;4.43;;;;;;;;;;5095525;28;20050;-68
2023/10/10 12:03:31;;;;;;;3.55;3.25;;;;;;;;;;5113610;28;20147;-67
2023/10/10 12:05:59;;;;;;;4.47;4.07;;;;;;;;;;5094630;28;20086;-68
2023/10/10 12:08:25;;;;;;;4.32;3.92;;;;;;;;;;5113774;28;20049;-67
2023/10/10 12:11:06;;;;;;;4.53;3.78;;;;;;;;;;5113441;28;20079;-68
2023/10/10 12:15:58;;;;;;;3.45;3.15;;;;;;;;;;5113365;28;20122;-68
2023/10/10 12:18:35;;;;;;;3.97;3.60;;;;;;;;;;5113461;28;20043;-67
2023/10/10 12:21:02;;;;;;;3.78;3.47;;;;;;;;;;5113236;28;20044;-68
2023/10/10 12:23:30;;;;;;;3.90;3.55;;;;;;;;;;5113354;28;20044;-68
2023/10/10 12:25:56;;;;;;;3.63;3.33;;;;;;;;;;5095090;28;20051;-67
2023/10/10 12:28:22;;;;;;;4.40;4.00;;;;;;;;;;5113272;28;20050;-67
2023/10/10 12:30:49;;;;;;;4.28;3.88;;;;;;;;;;5113578;28;20043;-67
2023/10/10 12:33:19;;;;;;;4.40;4.00;;;;;;;;;;5095016;28;20078;-67
2023/10/10 12:35:48;;;;;;;;;;;;;;;;;;5113642;28;20047;-67
2023/10/10 12:38:20;;;;;;;3.65;3.30;;;;;;;;;;5113566;28;19915;-68
2023/10/10 12:40:54;;;;;;;4.50;4.10;;;;;;;;;;5111981;28;20043;-67
2023/10/10 12:43:24;;;;;;;3.75;3.45;;;;;;;;;;5095196;28;20070;-67
2023/10/10 12:46:00;;;;;;;4.10;3.73;;;;;;;;;;5113171;28;20032;-67
2023/10/10 12:48:26;;;;;;;4.22;3.80;;;;;;;;;;5094823;28;20851;-68
2023/10/10 12:50:53;;;;;;;4.88;4.25;;;;;;;;;;5094946;28;20063;-67
2023/10/10 12:53:20;;;;;;;4.65;3.63;;;;;;;;;;5095083;28;20035;-67
2023/10/10 12:55:51;;;;;;;3.60;3.30;;;;;;;;;;5094796;28;20075;-67
2023/10/10 12:58:20;;;;;;;3.55;3.03;;;;;;;;;;5095028;28;20558;-67
2023/10/10 13:00:52;;;;;;;3.92;3.58;;;;;;;;;;5112118;28;20051;-67
2023/10/10 13:03:31;;;;;;;3.55;3.25;;;;;;;;;;5111813;28;20398;-67
2023/10/10 13:06:03;;;;;;;3.55;3.25;;;;;;;;;;5111565;28;20056;-71
2023/10/10 13:08:38;;;;;;;3.25;2.95;;;;;;;;;;5111585;28;20040;-67
2023/10/10 13:11:30;;;;;;;3.15;2.95;;;;;;;;;;5113257;28;20404;-67
2023/10/10 13:13:58;;;;;;;3.17;2.88;;;;;;;;;;5111613;28;20118;-68
2023/10/10 13:16:26;;;;;;;3.08;2.88;;;;;;;;;;5114293;28;20495;-67
2023/10/10 13:18:52;;;;;;;3.42;3.13;;;;;;;;;;5115696;28;20039;-67
2023/10/10 13:21:22;;;;;;;3.63;3.30;;;;;;;;;;5116784;28;20114;-68
2023/10/10 13:23:52;;;;;;;3.80;3.50;;;;;;;;;;5098705;28;20119;-67
2023/10/10 13:26:20;;;;;;;3.00;2.72;;;;;;;;;;5115550;28;20387;-67
2023/10/10 13:28:46;;;;;;;3.60;3.30;;;;;;;;;;5116748;28;20087;-73
2023/10/10 13:31:15;;;;;;;4.22;3.83;;;;;;;;;;5116608;28;20042;-67
2023/10/10 13:33:42;;;;;;;3.60;3.28;;;;;;;;;;5098512;28;20036;-67
2023/10/10 13:36:11;;;;;;;3.65;3.25;;;;;;;;;;5116764;28;20040;-67
2023/10/10 13:38:38;;;;;;;4.13;3.70;;;;;;;;;;5116431;28;20054;-67
2023/10/10 13:41:08;;;;;;;3.38;2.97;;;;;;;;;;5116657;28;20045;-67
2023/10/10 13:43:35;;;;;;;3.95;3.65;;;;;;;;;;5115375;28;20128;-67
2023/10/10 13:46:02;;;;;;;2.88;2.67;;;;;;;;;;5098034;28;20039;-67
2023/10/10 13:48:30;;;;;;;4.13;3.72;;;;;;;;;;5116443;28;20134;-67
2023/10/10 13:50:59;;;;;;;3.25;2.80;;;;;;;;;;5114951;28;20122;-67
2023/10/10 13:53:26;;;;;;;3.45;2.53;;;;;;;;;;5116195;28;20043;-67
2023/10/10 13:55:52;;;;;;;3.58;3.17;;;;;;;;;;5116449;28;20119;-67
2023/10/10 13:58:18;;;;;;;3.22;2.90;;;;;;;;;;5116366;28;20394;-67
2023/10/10 14:01:13;;;;;;;3.47;3.03;;;;;;;;;;5114920;28;20035;-65
2023/10/10 14:03:45;;;;;;;3.80;3.00;;;;;;;;;;5116209;28;20043;-66
2023/10/10 14:06:26;;;;;;;3.42;3.13;;;;;;;;;;5115815;28;20059;-67
2023/10/10 14:08:51;;;;;;;;;;;;;;;;;;5116562;28;20380;-67
2023/10/10 14:11:20;;;;;;;3.08;2.78;;;;;;;;;;5097953;28;19965;-68
2023/10/10 14:13:50;;;;;;;2.67;2.47;;;;;;;;;;5115818;28;20040;-67
2023/10/10 14:16:17;;;;;;;3.88;3.45;;;;;;;;;;5097797;28;20403;-67
2023/10/10 14:18:46;;;;;;;3.20;2.88;;;;;;;;;;5115967;28;20487;-67
2023/10/10 14:21:12;;;;;;;3.53;2.95;;;;;;;;;;5115649;28;20079;-66
2023/10/10 14:23:39;;;;;;;2.92;2.70;;;;;;;;;;5115534;28;20039;-66
2023/10/10 14:26:18;;;;;;;3.05;2.53;;;;;;;;;;5114266;28;20043;-66
2023/10/10 14:28:52;;;;;;;3.00;2.65;;;;;;;;;;5114845;28;20058;-66
2023/10/10 14:31:19;;;;;;;2.65;2.45;;;;;;;;;;5115503;28;20044;-66
2023/10/10 14:33:45;;;;;;;2.88;2.53;;;;;;;;;;5115318;28;20119;-66
2023/10/10 14:36:11;;;;;;;3.67;3.15;;;;;;;;;;5097115;28;20444;-66
2023/10/10 14:38:48;;;;;;;3.35;2.92;;;;;;;;;;5115568;28;20046;-65
2023/10/10 14:41:23;;;;;;;3.00;2.80;;;;;;;;;;5114280;28;20050;-66
2023/10/10 14:43:54;;;;;;;2.72;2.53;;;;;;;;;;5115178;28;20472;-66
2023/10/10 14:46:24;;;;;;;3.20;2.88;;;;;;;;;;5115062;28;20039;-66
2023/10/10 14:49:06;;;;;;;2.75;2.53;;;;;;;;;;5113808;28;20036;-66
2023/10/10 14:51:34;;;;;;;3.08;2.75;;;;;;;;;;5097103;28;20154;-66
2023/10/10 14:54:12;;;;;;;3.72;3.03;;;;;;;;;;5096669;28;20111;-66
2023/10/10 14:56:45;;;;;;;2.90;2.65;;;;;;;;;;5096706;28;20444;-66
2023/10/10 14:59:17;;;;;;;2.83;2.58;;;;;;;;;;5096646;28;20039;-66
2023/10/10 15:01:47;;;;;;;3.33;3.03;;;;;;;;;;5096796;28;20042;-66
2023/10/10 15:04:13;;;;;;;3.10;2.90;;;;;;;;;;5114668;28;20048;-66
2023/10/10 15:06:42;;;;;;;3.22;2.92;;;;;;;;;;5096350;28;20407;-73
2023/10/10 15:09:13;;;;;;;3.20;2.90;;;;;;;;;;5113428;28;20044;-66
2023/10/10 15:11:41;;;;;;;;;;;;;;;;;;5115463;28;20039;-66
2023/10/10 15:14:09;;;;;;;3.40;3.08;;;;;;;;;;5114820;28;20283;-71
2023/10/10 15:16:36;;;;;;;2.67;2.47;;;;;;;;;;5113560;28;20479;-66
2023/10/10 15:19:03;;;;;;;3.38;3.08;;;;;;;;;;5114781;28;20402;-66
2023/10/10 15:21:32;;;;;;;3.28;2.88;;;;;;;;;;5113230;28;20040;-66
2023/10/10 15:23:59;;;;;;;3.17;2.87;;;;;;;;;;5114417;28;20040;-66
2023/10/10 15:26:27;;;;;;;3.78;2.97;;;;;;;;;;5114377;28;20046;-66
2023/10/10 15:28:53;;;;;;;3.45;3.00;;;;;;;;;;5113305;28;20454;-70
2023/10/10 15:31:27;;;;;;;5.50;3.10;;;;;;;;;;5096036;28;20406;-65
2023/10/10 15:33:53;;;;;;;3.13;2.83;;;;;;;;;;5114560;28;20437;-66
2023/10/10 15:36:19;;;;;;;3.25;2.95;;;;;;;;;;5114447;28;20478;-66
2023/10/10 15:38:46;;;;;;;3.20;2.90;;;;;;;;;;5114117;28;20047;-65
2023/10/10 15:41:16;;;;;;;3.38;3.08;;;;;;;;;;5095918;28;20040;-66
2023/10/10 15:43:48;;;;;;;3.08;2.78;;;;;;;;;;5095791;28;20043;-66
2023/10/10 15:46:19;;;;;;;3.67;3.08;;;;;;;;;;5095758;28;20051;-66
2023/10/10 15:48:48;;;;;;;3.20;2.85;;;;;;;;;;5113911;28;20093;-66
2023/10/10 15:51:20;;;;;;;2.95;2.70;;;;;;;;;;5113989;28;20048;-66
2023/10/10 15:53:46;;;;;;;3.05;2.63;;;;;;;;;;5114030;28;20043;-66
2023/10/10 15:56:14;;;;;;;3.55;2.83;;;;;;;;;;5095571;28;20165;-66
2023/10/10 15:58:43;;;;;;;2.67;2.45;;;;;;;;;;5113742;28;20048;-66
2023/10/10 16:01:21;;;;;;;3.00;2.78;;;;;;;;;;5112754;28;20128;-67
2023/10/10 16:03:48;;;;;;;2.60;2.40;;;;;;;;;;5112449;28;20044;-66
2023/10/10 16:06:20;;;;;;;2.70;2.38;;;;;;;;;;5112328;28;20054;-70
2023/10/10 16:08:49;;;;;;;3.20;2.90;;;;;;;;;;5095718;28;20444;-66
2023/10/10 16:11:15;;;;;;;3.05;2.70;;;;;;;;;;5112577;28;20510;-66
2023/10/10 16:13:41;;;;;;;2.55;2.30;;;;;;;;;;5095328;28;20114;-66
2023/10/10 16:16:08;;;;;;;3.15;2.50;;;;;;;;;;5095266;28;20042;-65
2023/10/10 16:18:38;;;;;;;4.43;3.08;;;;;;;;;;5095337;28;20455;-66
2023/10/10 16:21:04;;;;;;;3.50;3.03;;;;;;;;;;5113816;28;20116;-68
2023/10/10 16:23:32;;;;;;;2.80;2.60;;;;;;;;;;5113632;28;20039;-70
2023/10/10 16:25:58;;;;;;;2.75;2.55;;;;;;;;;;5112100;28;20047;-68
2023/10/10 16:28:25;;;;;;;3.20;2.90;;;;;;;;;;5113619;28;20044;-67
2023/10/10 16:30:53;;;;;;;3.55;3.20;;;;;;;;;;5113570;28;20043;-67
2023/10/10 16:33:20;;;;;;;2.45;2.25;;;;;;;;;;5095380;28;20071;-67
2023/10/10 16:35:47;;;;;;;4.18;2.67;;;;;;;;;;5113535;28;20524;-68
2023/10/10 16:38:21;;;;;;;2.75;2.25;;;;;;;;;;5112063;28;20086;-70
2023/10/10 16:40:50;;;;;;;3.20;2.90;;;;;;;;;;5111970;28;20122;-67
2023/10/10 16:43:17;;;;;;;2.72;2.53;;;;;;;;;;5111968;28;20090;-67
2023/10/10 16:45:43;;;;;;;3.95;3.20;;;;;;;;;;5112232;28;20050;-67
2023/10/10 16:48:09;;;;;;;3.03;2.67;;;;;;;;;;5094993;28;20040;-71
2023/10/10 16:50:35;;;;;;;2.97;2.70;;;;;;;;;;5094974;28;20036;-67
2023/10/10 16:53:02;;;;;;;5.22;2.80;;;;;;;;;;5117631;28;20035;-66
2023/10/10 16:55:28;;;;;;;2.58;2.20;;;;;;;;;;5116335;28;20118;-66
2023/10/10 16:57:54;;;;;;;3.40;3.10;;;;;;;;;;5117504;28;20043;-67
2023/10/10 17:00:21;;;;;;;4.88;3.40;;;;;;;;;;5098930;28;20493;-66
2023/10/10 17:02:49;;;;;;;2.58;2.38;;;;;;;;;;5116061;28;20051;-66
2023/10/10 17:05:15;;;;;;;2.85;2.60;;;;;;;;;;5117024;28;20094;-66
2023/10/10 17:07:42;;;;;;;3.13;2.50;;;;;;;;;;5098916;28;20039;-66
2023/10/10 17:10:13;;;;;;;3.03;2.72;;;;;;;;;;5117306;28;20036;-66
2023/10/10 17:12:42;;;;;;;2.90;2.67;;;;;;;;;;5098746;28;20050;-66
2023/10/10 17:15:21;;;;;;;2.40;2.17;;;;;;;;;;5117178;28;20119;-65
2023/10/10 17:17:47;;;;;;;2.53;2.33;;;;;;;;;;5116859;28;20044;-66
2023/10/10 17:20:16;;;;;;;2.90;2.70;;;;;;;;;;5098541;28;20101;-66
2023/10/10 17:22:44;;;;;;;4.55;2.95;;;;;;;;;;5098759;28;20047;-66
2023/10/10 17:25:10;;;;;;;3.45;2.33;;;;;;;;;;5098436;28;20402;-65
2023/10/10 17:27:37;;;;;;;2.72;2.45;;;;;;;;;;5098317;28;20044;-65
2023/10/10 17:30:04;;;;;;;2.60;2.40;;;;;;;;;;5098371;28;20039;-66
2023/10/10 17:32:31;;;;;;;3.38;3.05;;;;;;;;;;5116939;28;20383;-65
2023/10/10 17:35:02;;;;;;;2.70;2.50;;;;;;;;;;5098553;28;20043;-65
2023/10/10 17:37:28;;;;;;;3.20;2.90;;;;;;;;;;5116458;28;20051;-65